sensor_id;sensor_type;location;lat;lon;timestamp;P1;durP1;ratioP1;P2;durP2;ratioP2
14235;SDS011;7202;50.718;7.072;2023-02-01T00:01:30;17.58;;;8.85;;
14235;SDS011;7202;50.718;7.072;2023-02-01T00:03:59;12.35;;;8.60;;
14235;SDS011;7202;50.718;7.072;2023-02-01T00:06:27;18.33;;;8.70;;
14235;SDS011;7202;50.718;7.072;2023-02-01T00:08:56;12.90;;;8.85;;
14235;SDS011;7202;50.718;7.072;2023-02-01T00:11:25;14.85;;;8.23;;
14235;SDS011;7202;50.718;7.072;2023-02-01T00:13:56;15.35;;;9.05;;
14235;SDS011;7202;50.718;7.072;2023-02-01T00:16:25;15.20;;;8.73;;
14235;SDS011;7202;50.718;7.072;2023-02-01T00:18:57;13.35;;;7.63;;
14235;SDS011;7202;50.718;7.072;2023-02-01T00:21:27;17.70;;;9.02;;
14235;SDS011;7202;50.718;7.072;2023-02-01T00:23:56;11.80;;;7.40;;
14235;SDS011;7202;50.718;7.072;2023-02-01T00:26:25;14.60;;;7.88;;
14235;SDS011;7202;50.718;7.072;2023-02-01T00:28:59;13.38;;;7.60;;
14235;SDS011;7202;50.718;7.072;2023-02-01T00:31:28;18.52;;;8.63;;
14235;SDS011;7202;50.718;7.072;2023-02-01T00:33:57;17.48;;;8.23;;
14235;SDS011;7202;50.718;7.072;2023-02-01T00:36:26;17.52;;;7.85;;
14235;SDS011;7202;50.718;7.072;2023-02-01T00:38:55;17.60;;;8.25;;
14235;SDS011;7202;50.718;7.072;2023-02-01T00:41:24;17.35;;;7.68;;
14235;SDS011;7202;50.718;7.072;2023-02-01T00:43:54;13.23;;;6.93;;
14235;SDS011;7202;50.718;7.072;2023-02-01T00:46:24;15.48;;;6.78;;
14235;SDS011;7202;50.718;7.072;2023-02-01T00:48:53;12.73;;;6.38;;
14235;SDS011;7202;50.718;7.072;2023-02-01T00:51:22;19.35;;;5.75;;
14235;SDS011;7202;50.718;7.072;2023-02-01T00:53:54;13.57;;;6.18;;
14235;SDS011;7202;50.718;7.072;2023-02-01T00:56:24;15.18;;;5.65;;
14235;SDS011;7202;50.718;7.072;2023-02-01T00:58:54;13.23;;;5.10;;
14235;SDS011;7202;50.718;7.072;2023-02-01T01:01:25;15.90;;;4.55;;
14235;SDS011;7202;50.718;7.072;2023-02-01T01:03:55;11.40;;;4.60;;
14235;SDS011;7202;50.718;7.072;2023-02-01T01:06:26;12.10;;;5.07;;
14235;SDS011;7202;50.718;7.072;2023-02-01T01:08:56;15.50;;;4.72;;
14235;SDS011;7202;50.718;7.072;2023-02-01T01:11:27;14.55;;;4.65;;
14235;SDS011;7202;50.718;7.072;2023-02-01T01:13:57;11.73;;;3.85;;
14235;SDS011;7202;50.718;7.072;2023-02-01T01:16:28;9.55;;;3.92;;
14235;SDS011;7202;50.718;7.072;2023-02-01T01:18:58;16.38;;;5.15;;
14235;SDS011;7202;50.718;7.072;2023-02-01T01:21:27;11.30;;;3.95;;
14235;SDS011;7202;50.718;7.072;2023-02-01T01:23:56;15.50;;;4.53;;
14235;SDS011;7202;50.718;7.072;2023-02-01T01:26:26;10.98;;;3.83;;
14235;SDS011;7202;50.718;7.072;2023-02-01T01:28:56;11.77;;;4.60;;
14235;SDS011;7202;50.718;7.072;2023-02-01T01:31:25;13.52;;;3.92;;
14235;SDS011;7202;50.718;7.072;2023-02-01T01:33:57;13.43;;;4.03;;
14235;SDS011;7202;50.718;7.072;2023-02-01T01:36:28;9.57;;;3.92;;
14235;SDS011;7202;50.718;7.072;2023-02-01T01:38:57;8.73;;;4.10;;
14235;SDS011;7202;50.718;7.072;2023-02-01T01:41:28;6.30;;;3.28;;
14235;SDS011;7202;50.718;7.072;2023-02-01T01:44:03;14.82;;;4.38;;
14235;SDS011;7202;50.718;7.072;2023-02-01T01:46:36;13.40;;;3.97;;
14235;SDS011;7202;50.718;7.072;2023-02-01T01:49:08;10.15;;;3.35;;
14235;SDS011;7202;50.718;7.072;2023-02-01T01:51:41;10.57;;;3.72;;
14235;SDS011;7202;50.718;7.072;2023-02-01T01:54:13;9.35;;;3.72;;
14235;SDS011;7202;50.718;7.072;2023-02-01T01:56:45;11.45;;;4.03;;
14235;SDS011;7202;50.718;7.072;2023-02-01T01:59:17;9.98;;;3.83;;
14235;SDS011;7202;50.718;7.072;2023-02-01T02:01:47;8.43;;;3.53;;
14235;SDS011;7202;50.718;7.072;2023-02-01T02:04:16;11.25;;;3.55;;
14235;SDS011;7202;50.718;7.072;2023-02-01T02:06:45;14.38;;;4.15;;
14235;SDS011;7202;50.718;7.072;2023-02-01T02:09:17;15.43;;;3.97;;
14235;SDS011;7202;50.718;7.072;2023-02-01T02:11:48;20.77;;;5.15;;
14235;SDS011;7202;50.718;7.072;2023-02-01T02:14:17;10.23;;;3.83;;
14235;SDS011;7202;50.718;7.072;2023-02-01T02:16:57;12.63;;;4.47;;
14235;SDS011;7202;50.718;7.072;2023-02-01T02:19:47;11.77;;;5.10;;
14235;SDS011;7202;50.718;7.072;2023-02-01T02:22:48;15.25;;;4.22;;
14235;SDS011;7202;50.718;7.072;2023-02-01T02:25:51;12.80;;;4.75;;
14235;SDS011;7202;50.718;7.072;2023-02-01T02:31:36;10.95;;;4.38;;
14235;SDS011;7202;50.718;7.072;2023-02-01T02:34:19;13.88;;;5.25;;
14235;SDS011;7202;50.718;7.072;2023-02-01T02:36:55;12.88;;;4.85;;
14235;SDS011;7202;50.718;7.072;2023-02-01T02:39:36;13.63;;;4.50;;
14235;SDS011;7202;50.718;7.072;2023-02-01T02:42:13;15.98;;;6.15;;
14235;SDS011;7202;50.718;7.072;2023-02-01T02:45:06;15.15;;;4.72;;
14235;SDS011;7202;50.718;7.072;2023-02-01T02:48:00;13.43;;;5.57;;
14235;SDS011;7202;50.718;7.072;2023-02-01T02:50:40;14.38;;;4.78;;
14235;SDS011;7202;50.718;7.072;2023-02-01T02:53:32;8.68;;;4.53;;
14235;SDS011;7202;50.718;7.072;2023-02-01T02:56:22;12.57;;;5.18;;
14235;SDS011;7202;50.718;7.072;2023-02-01T02:59:12;14.25;;;5.03;;
14235;SDS011;7202;50.718;7.072;2023-02-01T03:02:01;13.60;;;5.00;;
14235;SDS011;7202;50.718;7.072;2023-02-01T03:04:51;11.40;;;4.57;;
14235;SDS011;7202;50.718;7.072;2023-02-01T03:07:48;11.07;;;4.38;;
14235;SDS011;7202;50.718;7.072;2023-02-01T03:10:24;14.40;;;4.85;;
14235;SDS011;7202;50.718;7.072;2023-02-01T03:13:03;19.27;;;4.88;;
14235;SDS011;7202;50.718;7.072;2023-02-01T03:15:36;17.40;;;4.90;;
14235;SDS011;7202;50.718;7.072;2023-02-01T03:18:11;13.20;;;5.10;;
14235;SDS011;7202;50.718;7.072;2023-02-01T03:20:44;17.92;;;4.75;;
14235;SDS011;7202;50.718;7.072;2023-02-01T03:23:17;11.70;;;3.75;;
14235;SDS011;7202;50.718;7.072;2023-02-01T03:25:50;11.10;;;4.32;;
14235;SDS011;7202;50.718;7.072;2023-02-01T03:28:22;11.73;;;4.30;;
14235;SDS011;7202;50.718;7.072;2023-02-01T03:30:53;12.10;;;4.30;;
14235;SDS011;7202;50.718;7.072;2023-02-01T03:33:23;12.45;;;4.47;;
14235;SDS011;7202;50.718;7.072;2023-02-01T03:35:57;11.38;;;4.60;;
14235;SDS011;7202;50.718;7.072;2023-02-01T03:38:36;15.65;;;4.32;;
14235;SDS011;7202;50.718;7.072;2023-02-01T03:41:13;14.77;;;4.20;;
14235;SDS011;7202;50.718;7.072;2023-02-01T03:43:49;10.05;;;3.80;;
14235;SDS011;7202;50.718;7.072;2023-02-01T03:46:24;11.27;;;4.18;;
14235;SDS011;7202;50.718;7.072;2023-02-01T03:49:00;12.65;;;3.80;;
14235;SDS011;7202;50.718;7.072;2023-02-01T03:51:31;20.77;;;4.72;;
14235;SDS011;7202;50.718;7.072;2023-02-01T03:54:02;15.60;;;4.20;;
14235;SDS011;7202;50.718;7.072;2023-02-01T03:56:34;11.20;;;3.88;;
14235;SDS011;7202;50.718;7.072;2023-02-01T03:59:05;17.00;;;4.65;;
14235;SDS011;7202;50.718;7.072;2023-02-01T04:01:35;12.13;;;4.22;;
14235;SDS011;7202;50.718;7.072;2023-02-01T04:04:04;15.38;;;4.50;;
14235;SDS011;7202;50.718;7.072;2023-02-01T04:06:33;12.98;;;4.70;;
14235;SDS011;7202;50.718;7.072;2023-02-01T04:09:04;13.90;;;4.78;;
14235;SDS011;7202;50.718;7.072;2023-02-01T04:11:33;15.20;;;5.80;;
14235;SDS011;7202;50.718;7.072;2023-02-01T04:14:01;14.35;;;4.88;;
14235;SDS011;7202;50.718;7.072;2023-02-01T04:16:31;16.83;;;4.40;;
14235;SDS011;7202;50.718;7.072;2023-02-01T04:19:00;13.90;;;4.60;;
14235;SDS011;7202;50.718;7.072;2023-02-01T04:21:29;12.15;;;4.68;;
14235;SDS011;7202;50.718;7.072;2023-02-01T04:23:58;19.20;;;5.75;;
14235;SDS011;7202;50.718;7.072;2023-02-01T04:26:28;19.67;;;5.35;;
14235;SDS011;7202;50.718;7.072;2023-02-01T04:28:57;19.35;;;5.80;;
14235;SDS011;7202;50.718;7.072;2023-02-01T04:31:25;12.48;;;4.10;;
14235;SDS011;7202;50.718;7.072;2023-02-01T04:33:54;18.60;;;4.75;;
14235;SDS011;7202;50.718;7.072;2023-02-01T04:36:24;17.25;;;4.68;;
14235;SDS011;7202;50.718;7.072;2023-02-01T04:38:53;14.45;;;5.25;;
14235;SDS011;7202;50.718;7.072;2023-02-01T04:41:21;12.07;;;4.15;;
14235;SDS011;7202;50.718;7.072;2023-02-01T04:43:51;14.63;;;4.90;;
14235;SDS011;7202;50.718;7.072;2023-02-01T04:46:20;16.77;;;4.75;;
14235;SDS011;7202;50.718;7.072;2023-02-01T04:48:49;10.07;;;4.55;;
14235;SDS011;7202;50.718;7.072;2023-02-01T04:51:18;19.95;;;4.80;;
14235;SDS011;7202;50.718;7.072;2023-02-01T04:53:46;13.20;;;4.40;;
14235;SDS011;7202;50.718;7.072;2023-02-01T04:56:15;13.25;;;4.38;;
14235;SDS011;7202;50.718;7.072;2023-02-01T04:58:43;15.60;;;4.93;;
14235;SDS011;7202;50.718;7.072;2023-02-01T05:01:13;17.55;;;4.45;;
14235;SDS011;7202;50.718;7.072;2023-02-01T05:03:42;14.77;;;4.28;;
14235;SDS011;7202;50.718;7.072;2023-02-01T05:06:11;17.25;;;4.38;;
14235;SDS011;7202;50.718;7.072;2023-02-01T05:08:39;12.40;;;4.97;;
14235;SDS011;7202;50.718;7.072;2023-02-01T05:11:08;18.08;;;4.95;;
14235;SDS011;7202;50.718;7.072;2023-02-01T05:13:57;21.75;;;4.80;;
14235;SDS011;7202;50.718;7.072;2023-02-01T05:16:29;16.52;;;4.28;;
14235;SDS011;7202;50.718;7.072;2023-02-01T05:18:58;11.38;;;4.35;;
14235;SDS011;7202;50.718;7.072;2023-02-01T05:21:27;13.40;;;3.97;;
14235;SDS011;7202;50.718;7.072;2023-02-01T05:23:55;18.77;;;4.38;;
14235;SDS011;7202;50.718;7.072;2023-02-01T05:26:42;15.70;;;4.25;;
14235;SDS011;7202;50.718;7.072;2023-02-01T05:29:10;13.43;;;4.18;;
14235;SDS011;7202;50.718;7.072;2023-02-01T05:31:41;10.50;;;3.42;;
14235;SDS011;7202;50.718;7.072;2023-02-01T05:34:11;13.48;;;3.92;;
14235;SDS011;7202;50.718;7.072;2023-02-01T05:36:40;13.60;;;3.25;;
14235;SDS011;7202;50.718;7.072;2023-02-01T05:39:09;14.55;;;3.70;;
14235;SDS011;7202;50.718;7.072;2023-02-01T05:41:38;14.10;;;3.58;;
14235;SDS011;7202;50.718;7.072;2023-02-01T05:44:06;11.80;;;3.30;;
14235;SDS011;7202;50.718;7.072;2023-02-01T05:46:35;11.35;;;3.75;;
14235;SDS011;7202;50.718;7.072;2023-02-01T05:49:08;11.35;;;3.38;;
14235;SDS011;7202;50.718;7.072;2023-02-01T05:51:37;17.40;;;4.03;;
14235;SDS011;7202;50.718;7.072;2023-02-01T05:54:06;13.13;;;3.58;;
14235;SDS011;7202;50.718;7.072;2023-02-01T05:56:36;15.38;;;4.03;;
14235;SDS011;7202;50.718;7.072;2023-02-01T05:59:04;13.93;;;3.13;;
14235;SDS011;7202;50.718;7.072;2023-02-01T06:01:33;10.90;;;2.40;;
14235;SDS011;7202;50.718;7.072;2023-02-01T06:04:01;9.77;;;2.90;;
14235;SDS011;7202;50.718;7.072;2023-02-01T06:09:03;15.23;;;2.75;;
14235;SDS011;7202;50.718;7.072;2023-02-01T06:11:32;7.38;;;2.60;;
14235;SDS011;7202;50.718;7.072;2023-02-01T06:14:01;14.38;;;3.40;;
14235;SDS011;7202;50.718;7.072;2023-02-01T06:16:29;10.18;;;3.58;;
14235;SDS011;7202;50.718;7.072;2023-02-01T06:18:58;11.80;;;3.20;;
14235;SDS011;7202;50.718;7.072;2023-02-01T06:21:26;14.77;;;3.20;;
14235;SDS011;7202;50.718;7.072;2023-02-01T06:23:56;9.35;;;2.80;;
14235;SDS011;7202;50.718;7.072;2023-02-01T06:26:25;15.38;;;2.92;;
14235;SDS011;7202;50.718;7.072;2023-02-01T06:28:55;17.45;;;3.83;;
14235;SDS011;7202;50.718;7.072;2023-02-01T06:31:24;11.98;;;3.45;;
14235;SDS011;7202;50.718;7.072;2023-02-01T06:33:53;12.10;;;3.20;;
14235;SDS011;7202;50.718;7.072;2023-02-01T06:36:22;7.07;;;2.72;;
14235;SDS011;7202;50.718;7.072;2023-02-01T06:38:51;13.05;;;3.42;;
14235;SDS011;7202;50.718;7.072;2023-02-01T06:41:21;15.10;;;2.78;;
14235;SDS011;7202;50.718;7.072;2023-02-01T06:43:50;13.40;;;3.20;;
14235;SDS011;7202;50.718;7.072;2023-02-01T06:46:18;12.57;;;3.58;;
14235;SDS011;7202;50.718;7.072;2023-02-01T06:48:47;17.77;;;3.30;;
14235;SDS011;7202;50.718;7.072;2023-02-01T06:51:20;15.70;;;3.03;;
14235;SDS011;7202;50.718;7.072;2023-02-01T06:53:50;10.02;;;3.35;;
14235;SDS011;7202;50.718;7.072;2023-02-01T06:56:20;8.45;;;3.08;;
14235;SDS011;7202;50.718;7.072;2023-02-01T06:58:49;15.43;;;4.13;;
14235;SDS011;7202;50.718;7.072;2023-02-01T07:01:18;12.68;;;3.35;;
14235;SDS011;7202;50.718;7.072;2023-02-01T07:03:47;14.18;;;2.85;;
14235;SDS011;7202;50.718;7.072;2023-02-01T07:06:17;12.43;;;3.45;;
14235;SDS011;7202;50.718;7.072;2023-02-01T07:08:47;16.17;;;3.50;;
14235;SDS011;7202;50.718;7.072;2023-02-01T07:11:16;14.80;;;3.50;;
14235;SDS011;7202;50.718;7.072;2023-02-01T07:13:47;10.65;;;3.50;;
14235;SDS011;7202;50.718;7.072;2023-02-01T07:16:17;12.48;;;3.35;;
14235;SDS011;7202;50.718;7.072;2023-02-01T07:18:47;12.75;;;3.30;;
14235;SDS011;7202;50.718;7.072;2023-02-01T07:21:17;15.38;;;3.75;;
14235;SDS011;7202;50.718;7.072;2023-02-01T07:23:46;10.60;;;3.25;;
14235;SDS011;7202;50.718;7.072;2023-02-01T07:26:15;19.40;;;3.63;;
14235;SDS011;7202;50.718;7.072;2023-02-01T07:28:44;16.00;;;3.60;;
14235;SDS011;7202;50.718;7.072;2023-02-01T07:31:16;10.93;;;3.47;;
14235;SDS011;7202;50.718;7.072;2023-02-01T07:33:47;13.00;;;3.25;;
14235;SDS011;7202;50.718;7.072;2023-02-01T07:36:18;13.52;;;2.75;;
14235;SDS011;7202;50.718;7.072;2023-02-01T07:38:47;19.00;;;5.32;;
14235;SDS011;7202;50.718;7.072;2023-02-01T07:41:16;15.02;;;3.50;;
14235;SDS011;7202;50.718;7.072;2023-02-01T07:43:47;13.73;;;3.55;;
14235;SDS011;7202;50.718;7.072;2023-02-01T07:46:18;12.02;;;3.72;;
14235;SDS011;7202;50.718;7.072;2023-02-01T07:48:47;14.45;;;4.10;;
14235;SDS011;7202;50.718;7.072;2023-02-01T07:51:16;18.17;;;4.45;;
14235;SDS011;7202;50.718;7.072;2023-02-01T07:53:45;10.10;;;3.78;;
14235;SDS011;7202;50.718;7.072;2023-02-01T07:56:14;18.65;;;3.92;;
14235;SDS011;7202;50.718;7.072;2023-02-01T07:58:46;12.35;;;3.80;;
14235;SDS011;7202;50.718;7.072;2023-02-01T08:01:16;21.50;;;4.25;;
14235;SDS011;7202;50.718;7.072;2023-02-01T08:03:52;15.20;;;3.45;;
14235;SDS011;7202;50.718;7.072;2023-02-01T08:06:22;16.15;;;4.38;;
14235;SDS011;7202;50.718;7.072;2023-02-01T08:08:52;16.65;;;4.25;;
14235;SDS011;7202;50.718;7.072;2023-02-01T08:11:21;12.27;;;3.95;;
14235;SDS011;7202;50.718;7.072;2023-02-01T08:13:51;20.58;;;5.30;;
14235;SDS011;7202;50.718;7.072;2023-02-01T08:16:21;15.68;;;5.28;;
14235;SDS011;7202;50.718;7.072;2023-02-01T08:18:51;15.18;;;4.50;;
14235;SDS011;7202;50.718;7.072;2023-02-01T08:21:21;13.32;;;4.07;;
14235;SDS011;7202;50.718;7.072;2023-02-01T08:23:52;13.25;;;4.82;;
14235;SDS011;7202;50.718;7.072;2023-02-01T08:26:21;18.48;;;4.38;;
14235;SDS011;7202;50.718;7.072;2023-02-01T08:28:51;18.23;;;4.10;;
14235;SDS011;7202;50.718;7.072;2023-02-01T08:31:24;19.20;;;4.95;;
14235;SDS011;7202;50.718;7.072;2023-02-01T08:33:55;19.00;;;4.53;;
14235;SDS011;7202;50.718;7.072;2023-02-01T08:36:25;17.45;;;4.15;;
14235;SDS011;7202;50.718;7.072;2023-02-01T08:38:55;17.88;;;8.65;;
14235;SDS011;7202;50.718;7.072;2023-02-01T08:41:25;18.88;;;3.65;;
14235;SDS011;7202;50.718;7.072;2023-02-01T08:43:56;13.63;;;4.03;;
14235;SDS011;7202;50.718;7.072;2023-02-01T08:46:27;13.20;;;4.50;;
14235;SDS011;7202;50.718;7.072;2023-02-01T08:48:56;9.95;;;3.75;;
14235;SDS011;7202;50.718;7.072;2023-02-01T08:51:25;16.95;;;3.75;;
14235;SDS011;7202;50.718;7.072;2023-02-01T08:53:54;15.55;;;3.63;;
14235;SDS011;7202;50.718;7.072;2023-02-01T08:56:22;13.32;;;3.65;;
14235;SDS011;7202;50.718;7.072;2023-02-01T08:58:51;13.45;;;3.53;;
14235;SDS011;7202;50.718;7.072;2023-02-01T09:01:20;14.00;;;3.78;;
14235;SDS011;7202;50.718;7.072;2023-02-01T09:03:50;13.18;;;3.30;;
14235;SDS011;7202;50.718;7.072;2023-02-01T09:06:19;13.23;;;3.50;;
14235;SDS011;7202;50.718;7.072;2023-02-01T09:08:48;14.65;;;3.72;;
14235;SDS011;7202;50.718;7.072;2023-02-01T09:11:17;20.33;;;3.55;;
14235;SDS011;7202;50.718;7.072;2023-02-01T09:13:46;13.07;;;4.07;;
14235;SDS011;7202;50.718;7.072;2023-02-01T09:16:15;18.73;;;3.40;;
14235;SDS011;7202;50.718;7.072;2023-02-01T09:18:44;11.73;;;3.33;;
14235;SDS011;7202;50.718;7.072;2023-02-01T09:21:34;15.70;;;3.53;;
14235;SDS011;7202;50.718;7.072;2023-02-01T09:24:04;15.30;;;3.15;;
14235;SDS011;7202;50.718;7.072;2023-02-01T09:26:33;13.23;;;3.50;;
14235;SDS011;7202;50.718;7.072;2023-02-01T09:29:02;14.57;;;3.03;;
14235;SDS011;7202;50.718;7.072;2023-02-01T09:31:33;14.13;;;3.38;;
14235;SDS011;7202;50.718;7.072;2023-02-01T09:34:02;10.55;;;3.90;;
14235;SDS011;7202;50.718;7.072;2023-02-01T09:36:30;13.45;;;3.13;;
14235;SDS011;7202;50.718;7.072;2023-02-01T09:39:01;14.60;;;3.30;;
14235;SDS011;7202;50.718;7.072;2023-02-01T09:41:32;13.77;;;3.30;;
14235;SDS011;7202;50.718;7.072;2023-02-01T09:44:12;16.35;;;3.22;;
14235;SDS011;7202;50.718;7.072;2023-02-01T09:46:58;15.52;;;3.10;;
14235;SDS011;7202;50.718;7.072;2023-02-01T09:49:28;10.77;;;3.00;;
14235;SDS011;7202;50.718;7.072;2023-02-01T09:52:00;11.07;;;3.15;;
14235;SDS011;7202;50.718;7.072;2023-02-01T09:54:37;14.30;;;2.83;;
14235;SDS011;7202;50.718;7.072;2023-02-01T09:57:13;13.27;;;3.42;;
14235;SDS011;7202;50.718;7.072;2023-02-01T09:59:49;10.35;;;2.75;;
14235;SDS011;7202;50.718;7.072;2023-02-01T10:02:24;13.88;;;2.97;;
14235;SDS011;7202;50.718;7.072;2023-02-01T10:04:55;10.30;;;2.83;;
14235;SDS011;7202;50.718;7.072;2023-02-01T10:07:29;13.10;;;3.50;;
14235;SDS011;7202;50.718;7.072;2023-02-01T10:10:09;13.80;;;3.72;;
14235;SDS011;7202;50.718;7.072;2023-02-01T10:12:53;12.23;;;4.22;;
14235;SDS011;7202;50.718;7.072;2023-02-01T10:15:48;16.83;;;3.90;;
14235;SDS011;7202;50.718;7.072;2023-02-01T10:21:34;17.13;;;3.55;;
14235;SDS011;7202;50.718;7.072;2023-02-01T10:24:17;9.85;;;2.97;;
14235;SDS011;7202;50.718;7.072;2023-02-01T10:27:00;9.00;;;2.75;;
14235;SDS011;7202;50.718;7.072;2023-02-01T10:29:32;10.48;;;2.72;;
14235;SDS011;7202;50.718;7.072;2023-02-01T10:32:08;13.48;;;2.42;;
14235;SDS011;7202;50.718;7.072;2023-02-01T10:34:41;10.88;;;2.78;;
14235;SDS011;7202;50.718;7.072;2023-02-01T10:37:15;10.13;;;2.50;;
14235;SDS011;7202;50.718;7.072;2023-02-01T10:39:52;13.63;;;3.08;;
14235;SDS011;7202;50.718;7.072;2023-02-01T10:42:25;9.13;;;2.97;;
14235;SDS011;7202;50.718;7.072;2023-02-01T10:44:56;13.07;;;3.10;;
14235;SDS011;7202;50.718;7.072;2023-02-01T10:47:27;12.90;;;3.45;;
14235;SDS011;7202;50.718;7.072;2023-02-01T10:49:58;12.32;;;3.10;;
14235;SDS011;7202;50.718;7.072;2023-02-01T10:52:36;14.95;;;3.05;;
14235;SDS011;7202;50.718;7.072;2023-02-01T10:55:27;10.95;;;2.88;;
14235;SDS011;7202;50.718;7.072;2023-02-01T10:58:02;7.63;;;2.28;;
14235;SDS011;7202;50.718;7.072;2023-02-01T11:00:37;9.73;;;2.80;;
14235;SDS011;7202;50.718;7.072;2023-02-01T11:03:20;15.00;;;3.13;;
14235;SDS011;7202;50.718;7.072;2023-02-01T11:06:01;13.15;;;2.70;;
14235;SDS011;7202;50.718;7.072;2023-02-01T11:08:41;11.13;;;3.08;;
14235;SDS011;7202;50.718;7.072;2023-02-01T11:11:11;10.88;;;2.70;;
14235;SDS011;7202;50.718;7.072;2023-02-01T11:13:42;8.90;;;2.70;;
14235;SDS011;7202;50.718;7.072;2023-02-01T11:16:11;13.05;;;2.78;;
14235;SDS011;7202;50.718;7.072;2023-02-01T11:18:42;8.82;;;3.10;;
14235;SDS011;7202;50.718;7.072;2023-02-01T11:21:11;13.65;;;3.25;;
14235;SDS011;7202;50.718;7.072;2023-02-01T11:23:43;10.93;;;4.35;;
14235;SDS011;7202;50.718;7.072;2023-02-01T11:26:14;6.70;;;2.55;;
14235;SDS011;7202;50.718;7.072;2023-02-01T11:28:53;8.70;;;2.80;;
14235;SDS011;7202;50.718;7.072;2023-02-01T11:31:26;8.52;;;2.95;;
14235;SDS011;7202;50.718;7.072;2023-02-01T11:33:57;11.88;;;2.97;;
14235;SDS011;7202;50.718;7.072;2023-02-01T11:36:30;11.95;;;2.80;;
14235;SDS011;7202;50.718;7.072;2023-02-01T11:39:09;11.00;;;3.28;;
14235;SDS011;7202;50.718;7.072;2023-02-01T11:41:55;7.85;;;2.55;;
14235;SDS011;7202;50.718;7.072;2023-02-01T11:44:31;9.10;;;2.80;;
14235;SDS011;7202;50.718;7.072;2023-02-01T11:47:21;10.55;;;2.92;;
14235;SDS011;7202;50.718;7.072;2023-02-01T11:49:52;8.98;;;2.38;;
14235;SDS011;7202;50.718;7.072;2023-02-01T11:52:31;8.55;;;2.80;;
14235;SDS011;7202;50.718;7.072;2023-02-01T11:55:24;10.30;;;2.53;;
14235;SDS011;7202;50.718;7.072;2023-02-01T11:58:12;10.88;;;2.75;;
14235;SDS011;7202;50.718;7.072;2023-02-01T12:01:15;11.27;;;3.17;;
14235;SDS011;7202;50.718;7.072;2023-02-01T12:07:01;13.50;;;3.08;;
14235;SDS011;7202;50.718;7.072;2023-02-01T12:09:40;11.70;;;2.40;;
14235;SDS011;7202;50.718;7.072;2023-02-01T12:12:19;11.60;;;2.53;;
14235;SDS011;7202;50.718;7.072;2023-02-01T12:14:56;12.75;;;2.85;;
14235;SDS011;7202;50.718;7.072;2023-02-01T12:17:47;12.35;;;2.70;;
14235;SDS011;7202;50.718;7.072;2023-02-01T12:20:41;9.20;;;2.42;;
14235;SDS011;7202;50.718;7.072;2023-02-01T12:23:29;9.07;;;2.35;;
14235;SDS011;7202;50.718;7.072;2023-02-01T12:26:16;10.90;;;2.55;;
14235;SDS011;7202;50.718;7.072;2023-02-01T12:29:04;12.88;;;2.83;;
14235;SDS011;7202;50.718;7.072;2023-02-01T12:31:44;12.10;;;2.40;;
14235;SDS011;7202;50.718;7.072;2023-02-01T12:34:30;13.75;;;2.95;;
14235;SDS011;7202;50.718;7.072;2023-02-01T12:37:20;11.48;;;2.90;;
14235;SDS011;7202;50.718;7.072;2023-02-01T12:39:58;10.07;;;2.22;;
14235;SDS011;7202;50.718;7.072;2023-02-01T12:42:35;9.27;;;2.20;;
14235;SDS011;7202;50.718;7.072;2023-02-01T12:45:11;9.80;;;2.75;;
14235;SDS011;7202;50.718;7.072;2023-02-01T12:47:47;10.52;;;2.28;;
14235;SDS011;7202;50.718;7.072;2023-02-01T12:50:22;7.75;;;2.38;;
14235;SDS011;7202;50.718;7.072;2023-02-01T12:52:57;9.88;;;2.20;;
14235;SDS011;7202;50.718;7.072;2023-02-01T12:55:35;9.45;;;2.67;;
14235;SDS011;7202;50.718;7.072;2023-02-01T12:58:22;8.23;;;2.50;;
14235;SDS011;7202;50.718;7.072;2023-02-01T13:00:55;7.00;;;2.33;;
14235;SDS011;7202;50.718;7.072;2023-02-01T13:03:30;12.95;;;3.08;;
14235;SDS011;7202;50.718;7.072;2023-02-01T13:06:07;11.45;;;2.45;;
14235;SDS011;7202;50.718;7.072;2023-02-01T13:08:43;7.30;;;2.20;;
14235;SDS011;7202;50.718;7.072;2023-02-01T13:11:16;9.55;;;2.25;;
14235;SDS011;7202;50.718;7.072;2023-02-01T13:13:54;9.15;;;2.45;;
14235;SDS011;7202;50.718;7.072;2023-02-01T13:16:29;12.50;;;2.50;;
14235;SDS011;7202;50.718;7.072;2023-02-01T13:19:02;11.85;;;2.45;;
14235;SDS011;7202;50.718;7.072;2023-02-01T13:21:39;10.18;;;2.17;;
14235;SDS011;7202;50.718;7.072;2023-02-01T13:24:15;8.18;;;2.58;;
14235;SDS011;7202;50.718;7.072;2023-02-01T13:26:55;9.32;;;2.80;;
14235;SDS011;7202;50.718;7.072;2023-02-01T13:29:24;11.80;;;2.63;;
14235;SDS011;7202;50.718;7.072;2023-02-01T13:31:58;11.07;;;2.72;;
14235;SDS011;7202;50.718;7.072;2023-02-01T13:35:13;7.85;;;2.00;;
14235;SDS011;7202;50.718;7.072;2023-02-01T13:37:59;12.60;;;2.38;;
14235;SDS011;7202;50.718;7.072;2023-02-01T13:40:39;10.52;;;2.20;;
14235;SDS011;7202;50.718;7.072;2023-02-01T13:43:13;9.02;;;2.55;;
14235;SDS011;7202;50.718;7.072;2023-02-01T13:45:47;7.20;;;2.42;;
14235;SDS011;7202;50.718;7.072;2023-02-01T13:48:19;11.63;;;2.45;;
14235;SDS011;7202;50.718;7.072;2023-02-01T13:50:52;11.48;;;2.55;;
14235;SDS011;7202;50.718;7.072;2023-02-01T13:53:25;10.85;;;2.38;;
14235;SDS011;7202;50.718;7.072;2023-02-01T13:55:58;7.65;;;2.40;;
14235;SDS011;7202;50.718;7.072;2023-02-01T13:58:29;10.75;;;2.75;;
14235;SDS011;7202;50.718;7.072;2023-02-01T14:04:03;10.82;;;3.05;;
14235;SDS011;7202;50.718;7.072;2023-02-01T14:09:30;9.13;;;2.35;;
14235;SDS011;7202;50.718;7.072;2023-02-01T14:15:16;9.23;;;2.60;;
14235;SDS011;7202;50.718;7.072;2023-02-01T14:17:54;15.20;;;2.70;;
14235;SDS011;7202;50.718;7.072;2023-02-01T14:23:16;10.05;;;2.72;;
14235;SDS011;7202;50.718;7.072;2023-02-01T14:25:57;9.80;;;2.30;;
14235;SDS011;7202;50.718;7.072;2023-02-01T14:28:35;9.13;;;2.22;;
14235;SDS011;7202;50.718;7.072;2023-02-01T14:31:28;9.18;;;2.17;;
14235;SDS011;7202;50.718;7.072;2023-02-01T14:34:22;12.68;;;2.72;;
14235;SDS011;7202;50.718;7.072;2023-02-01T14:36:58;13.20;;;2.28;;
14235;SDS011;7202;50.718;7.072;2023-02-01T14:39:34;11.43;;;2.35;;
14235;SDS011;7202;50.718;7.072;2023-02-01T14:42:17;8.32;;;1.88;;
14235;SDS011;7202;50.718;7.072;2023-02-01T14:44:51;14.85;;;3.33;;
14235;SDS011;7202;50.718;7.072;2023-02-01T14:47:29;9.15;;;2.28;;
14235;SDS011;7202;50.718;7.072;2023-02-01T14:53:14;11.45;;;2.75;;
14235;SDS011;7202;50.718;7.072;2023-02-01T14:55:48;8.02;;;2.13;;
14235;SDS011;7202;50.718;7.072;2023-02-01T14:58:32;9.85;;;2.83;;
14235;SDS011;7202;50.718;7.072;2023-02-01T15:01:14;8.70;;;1.80;;
14235;SDS011;7202;50.718;7.072;2023-02-01T15:03:47;7.32;;;2.13;;
14235;SDS011;7202;50.718;7.072;2023-02-01T15:06:23;10.05;;;2.28;;
14235;SDS011;7202;50.718;7.072;2023-02-01T15:08:56;11.50;;;2.10;;
14235;SDS011;7202;50.718;7.072;2023-02-01T15:11:27;9.82;;;2.13;;
14235;SDS011;7202;50.718;7.072;2023-02-01T15:13:57;11.32;;;1.88;;
14235;SDS011;7202;50.718;7.072;2023-02-01T15:16:27;6.90;;;2.17;;
14235;SDS011;7202;50.718;7.072;2023-02-01T15:19:08;7.68;;;2.75;;
14235;SDS011;7202;50.718;7.072;2023-02-01T15:21:45;14.40;;;2.65;;
14235;SDS011;7202;50.718;7.072;2023-02-01T15:24:18;11.85;;;2.42;;
14235;SDS011;7202;50.718;7.072;2023-02-01T15:26:48;10.98;;;2.10;;
14235;SDS011;7202;50.718;7.072;2023-02-01T15:29:19;14.57;;;2.65;;
14235;SDS011;7202;50.718;7.072;2023-02-01T15:31:49;6.45;;;2.00;;
14235;SDS011;7202;50.718;7.072;2023-02-01T15:34:20;11.30;;;1.77;;
14235;SDS011;7202;50.718;7.072;2023-02-01T15:36:49;9.80;;;2.03;;
14235;SDS011;7202;50.718;7.072;2023-02-01T15:39:33;10.52;;;2.05;;
14235;SDS011;7202;50.718;7.072;2023-02-01T15:42:09;9.10;;;2.38;;
14235;SDS011;7202;50.718;7.072;2023-02-01T15:44:44;8.30;;;1.83;;
14235;SDS011;7202;50.718;7.072;2023-02-01T15:47:15;9.75;;;1.90;;
14235;SDS011;7202;50.718;7.072;2023-02-01T15:49:45;6.57;;;1.95;;
14235;SDS011;7202;50.718;7.072;2023-02-01T15:52:22;12.63;;;2.97;;
14235;SDS011;7202;50.718;7.072;2023-02-01T15:54:55;8.10;;;2.25;;
14235;SDS011;7202;50.718;7.072;2023-02-01T15:57:26;9.68;;;2.30;;